Airfield :







YOU CAN JOIN US ON...

 
LOGIN :

Register | Disclaimer

   EN    FR    IT 

 









Legend :    VFR   Marginal VFR   IFR   Intensive IFR   Very Intensive IFR
Visi :
Ceiling :
>= 8 km
>= 3000ft
5 to 8 km
1000 to 3000 ft
1500m to 5 km
500 to 1000 ft
800 to 1500m
200 to 500 ft
< 800m
< 200 ft
Symbols :   Thunderstorms  Fog  Heavy snow  Heavy precipitations  Wind > 20 kt






- Airport Elevation : 83 ft


KBHB - Hancock County-Bar Harbor

CURRENT METAR :
  • 210956Z AUTO 00000KT 10SM CLR 16/16 A2995 RMK AO2 SLP142 T01610161

EXPIRED METARs :
  • 210856Z AUTO 00000KT 5SM BR CLR 16/16 A2994 RMK AO2 SLP139 T01610156 53003
  • 210756Z AUTO 00000KT 10SM CLR 17/16 A2993 RMK AO2 SLP137 T01670161
  • 210656Z AUTO 00000KT 5SM BR CLR 16/16 A2992 RMK AO2 SLP134 T01610156
  • 210556Z AUTO 20003KT 10SM CLR 18/17 A2993 RMK AO2 SLP136 T01780172 10211 20167 58009

TAF KBHB
Valid from the 21 at 06:00 until the 22 at 06:00 UTC


210520Z 2106/2206 00000KT 6SM BR SCT080
FM211300 34004KT P6SM SCT080
FM211500 33005KT P6SM BKN070
FM220000 26004KT P6SM SKC
KZBW FIR / North America



MET'MAP, your aeronautical weather chart ! - Copyright ORBIFLY December 2007 - Disclaimer

ORBIFLY MET'MAP TEAM :

Programming & Development : Alexandra Zaïnal
Original concept : Baudouin d'Aumeries
Technical & hardware support : Manuel Goepfert
Assistance : Marc-Olivier Méhu




SOURCES & CREDITS :

   NOAA